Time;durP1;ratioP1;P1;durP2;ratioP2;P2;SDS_P1;SDS_P2;PMS_P1;PMS_P2;Temp;Humidity;BMP_temperature;BMP_pressure;BME280_temperature;BME280_humidity;BME280_pressure;Samples;Min_cycle;Max_cycle;Signal;HPM_P1;HPM_P2
2022/05/14 00:00:51;;;;;;;16.25;5.38;;;;;;;13.01;61.80;101950.47;5072625;28;20073;-67
2022/05/14 00:03:17;;;;;;;14.43;5.60;;;;;;;13.02;61.91;101952.19;5072188;28;20119;-67
2022/05/14 00:05:43;;;;;;;10.32;5.45;;;;;;;13.09;62.00;101953.59;5072017;28;20029;-67
2022/05/14 00:08:15;;;;;;;13.02;5.47;;;;;;;12.98;62.25;101953.31;5072623;28;20032;-67
2022/05/14 00:13:26;;;;;;;10.55;5.32;;;;;;;12.89;62.91;101955.53;5072676;28;20094;-67
2022/05/14 00:15:51;;;;;;;13.20;5.70;;;;;;;12.83;62.93;101941.69;5072541;28;20111;-67
2022/05/14 00:18:19;;;;;;;14.38;6.18;;;;;;;12.84;63.42;101954.94;5073044;28;20116;-67
2022/05/14 00:20:45;;;;;;;12.27;6.00;;;;;;;12.91;63.00;101953.66;5072242;28;20051;-67
2022/05/14 00:23:10;;;;;;;15.15;6.53;;;;;;;12.74;63.70;101961.72;5076523;28;20483;-67
2022/05/14 00:25:36;;;;;;;13.07;6.00;;;;;;;12.71;63.96;101953.88;5073131;28;20126;-67
2022/05/14 00:28:02;;;;;;;13.15;6.57;;;;;;;12.69;64.03;101945.94;5072424;28;20028;-67
2022/05/14 00:30:30;;;;;;;13.65;5.70;;;;;;;12.70;63.97;101946.81;5072656;28;20024;-67
2022/05/14 00:32:56;;;;;;;15.80;6.00;;;;;;;12.63;64.40;101948.09;5071816;28;20028;-67
2022/05/14 00:35:22;;;;;;;11.63;5.88;;;;;;;12.71;64.10;101937.88;5076420;28;20057;-67
2022/05/14 00:37:49;;;;;;;12.75;6.70;;;;;;;12.63;64.39;101935.59;5076812;28;20123;-67
2022/05/14 00:40:22;;;;;;;13.38;5.93;;;;;;;12.59;64.55;101936.72;5068232;28;20119;-67
2022/05/14 00:42:47;;;;;;;15.77;6.15;;;;;;;12.66;64.11;101945.25;5072435;28;20031;-67
2022/05/14 00:45:15;;;;;;;15.52;6.88;;;;;;;12.63;64.36;101942.75;5075698;28;20024;-67
2022/05/14 00:47:45;;;;;;;10.00;6.63;;;;;;;12.58;64.26;101942.13;5072337;28;20032;-67
2022/05/14 00:50:20;;;;;;;;;;;;;;;12.73;62.43;101936.84;5072077;28;20028;-67
2022/05/14 00:52:45;;;;;;;11.50;6.25;;;;;;;12.50;64.15;101935.41;5072278;28;19916;-67
2022/05/14 00:55:11;;;;;;;16.40;7.10;;;;;;;12.52;64.33;101931.78;5053774;28;20043;-67
2022/05/14 00:57:39;;;;;;;9.55;6.60;;;;;;;12.50;64.16;101931.91;5070519;28;20032;-67
2022/05/14 01:00:17;;;;;;;15.98;6.82;;;;;;;12.48;64.18;101942.63;5070058;28;20024;-67
2022/05/14 01:02:47;;;;;;;12.82;6.82;;;;;;;12.44;64.22;101943.75;5070770;28;20501;-67
2022/05/14 01:05:14;;;;;;;12.38;6.60;;;;;;;12.31;64.52;101942.66;5074876;28;20365;-67
2022/05/14 01:07:40;;;;;;;14.40;6.07;;;;;;;12.27;64.42;101939.31;5071464;28;20506;-67
2022/05/14 01:10:09;;;;;;;18.25;6.22;;;;;;;12.35;64.16;101941.53;5069925;28;20031;-67
2022/05/14 01:12:35;;;;;;;12.25;6.35;;;;;;;12.17;64.61;101943.38;5077899;28;20048;-67
2022/05/14 01:15:14;;;;;;;11.98;6.20;;;;;;;12.30;64.03;101938.28;5071530;28;20035;-67
2022/05/14 01:17:40;;;;;;;12.23;6.13;;;;;;;12.13;64.47;101935.63;5075693;28;20029;-68
2022/05/14 01:20:08;;;;;;;16.73;6.20;;;;;;;12.22;64.28;101937.81;5070642;28;20032;-67
2022/05/14 01:23:00;;;;;;;13.90;6.15;;;;;;;12.22;64.15;101932.47;5069524;28;20526;-67
2022/05/14 01:28:24;;;;;;;11.43;5.93;;;;;;;11.98;64.68;101940.81;5072827;28;20032;-67
2022/05/14 01:30:57;;;;;;;11.48;6.68;;;;;;;12.08;64.03;101937.66;5068937;28;20387;-67
2022/05/14 01:33:23;;;;;;;10.43;5.47;;;;;;;12.03;63.92;101933.44;5072261;28;20052;-67
2022/05/14 01:35:49;;;;;;;8.85;4.82;;;;;;;11.96;64.20;101940.03;5084090;28;20063;-67
2022/05/14 01:38:16;;;;;;;9.75;5.35;;;;;;;11.88;64.32;101939.53;5077585;28;20031;-67
2022/05/14 01:40:42;;;;;;;10.30;4.93;;;;;;;11.87;64.04;101940.50;5074930;28;20032;-67
2022/05/14 01:43:08;;;;;;;11.57;5.65;;;;;;;11.79;64.31;101938.22;5070953;28;20027;-67
2022/05/14 01:45:34;;;;;;;11.73;5.35;;;;;;;11.78;64.20;101941.78;5086666;28;20052;-67
2022/05/14 01:47:59;;;;;;;10.07;5.40;;;;;;;11.77;63.92;101937.41;5063339;28;20053;-67
2022/05/14 01:50:25;;;;;;;9.02;4.85;;;;;;;11.73;63.63;101932.31;5074716;28;20128;-67
2022/05/14 01:52:54;;;;;;;11.10;5.07;;;;;;;11.77;63.74;101942.75;5070784;28;20476;-67
2022/05/14 01:55:19;;;;;;;12.50;4.47;;;;;;;11.75;63.47;101947.28;5074040;28;20082;-67
2022/05/14 01:57:45;;;;;;;9.15;5.15;;;;;;;11.78;63.68;101946.25;5071001;28;20032;-67
2022/05/14 02:00:13;;;;;;;11.48;5.32;;;;;;;11.69;63.63;101954.72;5076050;28;20380;-67
2022/05/14 02:02:39;;;;;;;10.30;5.20;;;;;;;11.70;63.56;101943.97;5072691;28;20028;-67
2022/05/14 02:05:06;;;;;;;6.47;4.75;;;;;;;11.73;63.26;101938.50;5073043;28;20028;-67
2022/05/14 02:07:31;;;;;;;7.53;4.80;;;;;;;11.66;63.33;101946.88;5070618;28;20544;-67
2022/05/14 02:09:57;;;;;;;8.85;4.85;;;;;;;11.71;63.48;101947.53;5069514;28;20028;-67
2022/05/14 02:12:22;;;;;;;7.55;4.80;;;;;;;11.67;63.13;101941.47;5035071;28;20519;-67
2022/05/14 02:14:50;;;;;;;10.15;4.50;;;;;;;11.55;63.54;101942.94;5070518;28;22036;-67
2022/05/14 02:17:16;;;;;;;11.98;5.10;;;;;;;11.55;63.51;101944.75;5070672;28;20096;-67
2022/05/14 02:19:41;;;;;;;13.50;5.65;;;;;;;11.59;63.43;101947.19;5069757;28;20100;-67
2022/05/14 02:22:07;;;;;;;12.27;5.07;;;;;;;11.50;63.90;101947.66;5068182;28;20024;-67
2022/05/14 02:24:35;;;;;;;13.07;4.88;;;;;;;11.58;63.22;101942.78;5069596;28;20415;-67
2022/05/14 02:27:01;;;;;;;11.02;4.95;;;;;;;11.41;63.88;101942.75;5069032;28;20073;-67
2022/05/14 02:29:27;;;;;;;11.02;5.20;;;;;;;11.37;63.71;101939.38;5068037;28;20032;-67
2022/05/14 02:31:52;;;;;;;12.98;5.65;;;;;;;11.41;63.64;101936.56;5070511;28;20025;-67
2022/05/14 02:34:18;;;;;;;12.48;5.20;;;;;;;11.49;63.27;101945.06;5069033;28;20360;-67
2022/05/14 02:36:44;;;;;;;10.10;4.47;;;;;;;11.49;63.54;101950.38;5051758;28;20051;-67
2022/05/14 02:39:10;;;;;;;8.73;4.50;;;;;;;11.33;64.23;101956.47;5069838;28;20020;-67
2022/05/14 02:41:36;;;;;;;13.00;5.20;;;;;;;11.46;63.48;101950.53;5069432;28;20460;-68
2022/05/14 02:44:02;;;;;;;8.68;4.70;;;;;;;11.41;63.62;101956.06;5069640;28;20070;-67
2022/05/14 02:46:28;;;;;;;13.75;5.13;;;;;;;11.28;63.76;101944.31;5068440;28;20021;-67
2022/05/14 02:48:54;;;;;;;7.60;4.85;;;;;;;11.33;63.62;101953.78;5067845;28;20044;-67
2022/05/14 02:51:20;;;;;;;13.43;4.88;;;;;;;11.31;63.63;101952.16;5066825;28;20036;-67
2022/05/14 02:53:45;;;;;;;9.10;4.78;;;;;;;11.31;64.10;101953.00;5069597;28;20032;-67
2022/05/14 02:56:12;;;;;;;10.73;5.07;;;;;;;11.25;63.70;101952.44;5067498;28;20040;-67
2022/05/14 03:01:29;;;;;;;14.85;5.75;;;;;;;11.24;64.16;101956.06;5068878;28;20120;-67
2022/05/14 03:03:57;;;;;;;10.25;4.78;;;;;;;11.29;63.71;101948.69;5051866;28;20465;-67
2022/05/14 03:06:22;;;;;;;9.52;4.68;;;;;;;11.16;64.31;101955.56;5070898;28;20025;-67
2022/05/14 03:08:48;;;;;;;12.63;4.88;;;;;;;11.18;64.35;101957.22;5055752;28;20040;-68
2022/05/14 03:11:14;;;;;;;10.60;4.03;;;;;;;11.05;64.64;101956.03;5055990;28;20059;-68
2022/05/14 03:13:39;;;;;;;9.32;5.10;;;;;;;11.03;64.78;101956.13;5072050;28;20052;-68
2022/05/14 03:16:05;;;;;;;10.00;4.95;;;;;;;11.03;64.48;101952.59;5072777;28;20040;-67
2022/05/14 03:18:31;;;;;;;8.38;4.80;;;;;;;10.95;65.00;101944.13;5054742;28;20020;-68
2022/05/14 03:20:58;;;;;;;12.30;5.00;;;;;;;10.91;64.82;101951.34;5072003;28;20020;-67
2022/05/14 03:23:26;;;;;;;7.63;5.18;;;;;;;10.99;64.56;101941.22;5071950;28;20028;-67
2022/05/14 03:25:51;;;;;;;8.98;5.35;;;;;;;10.94;65.16;101943.22;5055538;28;20561;-68
2022/05/14 03:28:17;;;;;;;10.48;4.97;;;;;;;10.94;64.75;101937.91;5070743;28;20119;-67
2022/05/14 03:30:43;;;;;;;10.02;5.03;;;;;;;10.96;64.94;101948.50;5071749;28;20029;-67
2022/05/14 03:33:08;;;;;;;9.23;4.95;;;;;;;11.04;64.99;101946.34;5072502;28;20060;-67
2022/05/14 03:35:34;;;;;;;12.77;5.47;;;;;;;10.82;65.41;101946.47;5071889;28;20033;-67
2022/05/14 03:37:59;;;;;;;12.38;5.28;;;;;;;10.88;65.06;101946.19;5073384;28;20483;-67
2022/05/14 03:40:25;;;;;;;10.77;5.20;;;;;;;10.75;65.40;101935.25;5071938;28;20043;-67
2022/05/14 03:42:51;;;;;;;12.48;5.20;;;;;;;10.87;65.40;101948.00;5073660;28;20025;-67
2022/05/14 03:45:17;;;;;;;13.45;4.90;;;;;;;10.85;65.30;101941.91;5071981;28;20377;-68
2022/05/14 03:47:42;;;;;;;12.80;5.70;;;;;;;10.77;65.55;101951.16;5073240;28;20526;-67
2022/05/14 03:50:09;;;;;;;10.65;5.38;;;;;;;10.66;66.07;101951.66;5070864;28;20046;-67
2022/05/14 03:52:35;;;;;;;9.32;5.05;;;;;;;10.70;65.70;101939.91;5073397;28;20440;-67
2022/05/14 03:55:01;;;;;;;12.65;5.90;;;;;;;10.64;66.17;101951.69;5055178;28;20111;-67
2022/05/14 03:57:30;;;;;;;12.23;5.53;;;;;;;10.72;66.00;101954.03;5071921;28;20036;-67
2022/05/14 03:59:56;;;;;;;13.45;5.10;;;;;;;10.66;65.78;101941.88;5071261;28;20514;-68
2022/05/14 04:02:23;;;;;;;10.32;5.05;;;;;;;10.66;65.82;101954.31;5075710;28;20468;-67
2022/05/14 04:04:48;;;;;;;9.10;5.30;;;;;;;10.73;66.04;101942.44;5069878;28;20583;-67
2022/05/14 04:07:14;;;;;;;9.57;5.80;;;;;;;10.72;65.87;101947.84;5071639;28;20127;-67
2022/05/14 04:09:40;;;;;;;9.52;5.20;;;;;;;10.71;66.15;101957.63;5054792;28;20120;-67
2022/05/14 04:12:06;;;;;;;10.57;5.22;;;;;;;10.68;66.14;101955.09;5071397;28;20139;-68
2022/05/14 04:14:32;;;;;;;11.77;5.50;;;;;;;10.66;66.12;101959.63;5037337;28;20051;-67
2022/05/14 04:17:00;;;;;;;9.27;5.18;;;;;;;10.67;66.65;101953.38;5071666;28;20075;-68
2022/05/14 04:19:43;;;;;;;9.70;5.20;;;;;;;10.71;66.67;101952.31;5049412;28;20087;-67
2022/05/14 04:22:08;;;;;;;10.80;5.60;;;;;;;10.75;66.08;101959.19;5016470;28;20040;-67
2022/05/14 04:24:34;;;;;;;11.40;6.03;;;;;;;10.71;66.64;101956.75;5016122;28;20048;-67
2022/05/14 04:26:59;;;;;;;13.07;5.97;;;;;;;10.64;66.89;101964.16;5032883;28;20108;-68
2022/05/14 04:29:25;;;;;;;8.45;5.43;;;;;;;10.71;66.71;101964.72;5049835;28;20045;-67
2022/05/14 04:31:51;;;;;;;8.88;5.80;;;;;;;10.64;67.08;101964.16;5049863;28;20040;-67
2022/05/14 04:34:18;;;;;;;10.95;5.55;;;;;;;10.67;67.08;101962.19;5048701;28;20075;-67
2022/05/14 04:36:44;;;;;;;12.63;6.07;;;;;;;10.58;67.28;101959.97;5033246;28;20399;-68
2022/05/14 04:39:12;;;;;;;16.42;6.15;;;;;;;10.66;67.37;101955.16;5049119;28;20033;-68
2022/05/14 04:41:37;;;;;;;10.68;5.43;;;;;;;10.67;67.42;101954.22;5049229;28;20439;-68
2022/05/14 04:44:04;;;;;;;10.77;5.88;;;;;;;10.69;67.30;101960.34;5034659;28;20052;-67
2022/05/14 04:46:29;;;;;;;10.77;5.72;;;;;;;10.74;66.77;101952.16;5048167;28;20523;-67
2022/05/14 04:48:55;;;;;;;11.77;6.28;;;;;;;10.69;67.52;101965.66;5048548;28;20111;-67
2022/05/14 04:51:21;;;;;;;11.65;5.97;;;;;;;10.76;67.73;101970.69;5069945;28;20403;-67
2022/05/14 04:53:46;;;;;;;11.77;6.18;;;;;;;10.77;67.62;101968.00;5071970;28;20034;-67
2022/05/14 04:56:12;;;;;;;15.68;7.20;;;;;;;10.85;67.81;101973.84;5052088;28;20028;-67
2022/05/14 04:58:38;;;;;;;15.57;6.45;;;;;;;10.91;67.80;101975.31;5069434;28;20032;-67
2022/05/14 05:01:03;;;;;;;13.90;6.65;;;;;;;10.94;67.46;101971.66;5069230;28;20555;-67
2022/05/14 05:03:29;;;;;;;11.40;6.45;;;;;;;10.94;67.45;101961.88;5052595;28;20028;-67
2022/05/14 05:05:58;;;;;;;11.40;6.68;;;;;;;10.95;67.54;101962.75;5070227;28;20040;-67
2022/05/14 05:08:25;;;;;;;12.90;6.67;;;;;;;10.90;68.05;101973.59;5068390;28;20291;-67
2022/05/14 05:10:52;;;;;;;11.77;6.35;;;;;;;10.95;68.38;101979.59;5070617;28;20399;-68
2022/05/14 05:13:20;;;;;;;11.15;6.18;;;;;;;11.08;67.79;101979.84;5030981;28;1110504;-67
2022/05/14 05:15:48;;;;;;;18.30;7.07;;;;;;;11.13;67.85;101977.84;5071433;28;20495;-68
2022/05/14 05:18:15;;;;;;;16.70;6.90;;;;;;;11.14;67.57;101972.44;5071367;28;20103;-67
2022/05/14 05:20:43;;;;;;;16.35;8.10;;;;;;;11.28;67.65;101974.44;5069381;28;20710;-67
2022/05/14 05:23:12;;;;;;;13.13;7.15;;;;;;;11.28;67.66;101979.78;5081145;28;20073;-67
2022/05/14 05:25:38;;;;;;;;;;;;;;;11.49;66.77;101985.88;5071558;28;20115;-68
2022/05/14 05:28:04;;;;;;;15.02;8.05;;;;;;;11.46;67.61;101985.16;5070890;28;20028;-67
2022/05/14 05:30:29;;;;;;;12.30;7.18;;;;;;;11.55;67.63;101990.03;5078176;28;20032;-67
2022/05/14 05:32:55;;;;;;;13.40;7.75;;;;;;;11.59;67.68;101986.31;5071888;28;20027;-67
2022/05/14 05:35:21;;;;;;;19.15;8.35;;;;;;;11.66;67.89;101998.38;5072771;28;20562;-67
2022/05/14 05:37:47;;;;;;;17.75;7.72;;;;;;;11.71;67.94;101998.16;5053096;28;20089;-67
2022/05/14 05:40:13;;;;;;;13.98;8.38;;;;;;;11.74;68.33;101998.88;5070991;28;20074;-67
2022/05/14 05:42:39;;;;;;;20.02;8.40;;;;;;;11.81;68.22;101991.41;5070492;28;20040;-67
2022/05/14 05:45:05;;;;;;;16.95;8.65;;;;;;;11.85;67.86;101987.69;5070676;28;20121;-67
2022/05/14 05:47:33;;;;;;;19.00;9.88;;;;;;;11.94;67.67;102000.59;5053467;28;20111;-67
2022/05/14 05:49:59;;;;;;;16.13;9.15;;;;;;;12.12;67.54;102013.91;5071123;28;20111;-67
2022/05/14 05:52:25;;;;;;;18.23;9.18;;;;;;;12.19;67.67;102007.31;5070667;28;20517;-66
2022/05/14 05:57:37;;;;;;;21.00;9.35;;;;;;;12.36;67.52;102006.47;5069166;28;20132;-67
2022/05/14 06:00:16;;;;;;;20.70;9.55;;;;;;;12.50;67.71;102001.28;5069698;28;20109;-67
2022/05/14 06:02:42;;;;;;;16.73;8.93;;;;;;;12.59;67.39;102011.47;5084594;28;20028;-67
2022/05/14 06:05:08;;;;;;;17.75;8.55;;;;;;;12.64;67.88;102004.03;5070116;28;20027;-67
2022/05/14 06:07:35;;;;;;;18.38;9.15;;;;;;;12.71;67.47;102007.28;5069624;28;20024;-67
2022/05/14 06:10:03;;;;;;;17.33;9.90;;;;;;;12.79;66.87;102007.69;5070781;28;20028;-67
2022/05/14 06:12:30;;;;;;;18.52;9.73;;;;;;;12.96;67.28;102014.81;5070164;28;20047;-67
2022/05/14 06:14:56;;;;;;;20.33;9.48;;;;;;;12.93;67.03;101999.81;5070777;28;20020;-67
2022/05/14 06:17:22;;;;;;;15.27;9.00;;;;;;;13.09;67.07;102017.69;5068208;28;20391;-67
2022/05/14 06:19:48;;;;;;;18.45;9.57;;;;;;;13.21;66.79;102008.09;5069374;28;20078;-67
2022/05/14 06:22:14;;;;;;;20.60;9.68;;;;;;;13.28;66.74;102017.56;5068998;28;20086;-67
2022/05/14 06:24:39;;;;;;;20.83;10.38;;;;;;;13.34;66.77;102018.06;5052629;28;20468;-66
2022/05/14 06:27:05;;;;;;;20.50;9.80;;;;;;;13.42;66.81;102020.31;5070663;28;20090;-67
2022/05/14 06:29:31;;;;;;;22.08;11.05;;;;;;;13.52;66.35;102018.84;5069110;28;20502;-66
2022/05/14 06:31:58;;;;;;;18.55;10.35;;;;;;;13.52;66.39;102013.50;5069315;28;20379;-67
2022/05/14 06:34:24;;;;;;;21.40;10.50;;;;;;;13.64;66.31;102026.16;5068587;28;20115;-67
2022/05/14 06:36:51;;;;;;;20.73;10.40;;;;;;;13.85;65.82;102028.53;5069859;28;20044;-67
2022/05/14 06:39:16;;;;;;;23.83;10.82;;;;;;;13.98;65.52;102039.41;5068119;28;20015;-67
2022/05/14 06:41:42;;;;;;;20.80;9.77;;;;;;;14.19;64.89;102031.94;5069610;28;20395;-67
2022/05/14 06:44:08;;;;;;;24.27;9.95;;;;;;;14.26;65.35;102038.63;5069416;28;20032;-67
2022/05/14 06:46:34;;;;;;;23.80;10.48;;;;;;;14.19;65.13;102027.44;5069415;28;20068;-67
2022/05/14 06:49:00;;;;;;;23.75;10.43;;;;;;;14.41;64.88;102040.41;5069755;28;20451;-67
2022/05/14 06:51:27;;;;;;;23.30;10.25;;;;;;;14.47;64.65;102040.06;5052454;28;20063;-67
2022/05/14 06:53:58;;;;;;;24.17;10.68;;;;;;;14.51;65.54;102038.03;5070371;28;20379;-67
2022/05/14 06:56:26;;;;;;;26.30;10.65;;;;;;;14.63;64.43;102041.81;5070470;28;20027;-67
2022/05/14 06:58:52;;;;;;;20.33;11.05;;;;;;;14.65;64.58;102034.56;5070669;28;20021;-67
2022/05/14 07:01:19;;;;;;;24.13;10.70;;;;;;;14.74;63.57;102031.31;5069288;28;20394;-67
2022/05/14 07:06:38;;;;;;;16.65;10.18;;;;;;;14.89;63.63;102033.03;5068599;28;20090;-67
2022/05/14 07:09:06;;;;;;;21.10;11.50;;;;;;;14.97;63.58;102030.75;5069314;28;20036;-67
2022/05/14 07:11:35;;;;;;;25.63;11.27;;;;;;;15.16;63.64;102034.94;5070191;28;20086;-67
2022/05/14 07:14:03;;;;;;;28.80;10.75;;;;;;;15.20;63.11;102041.81;5070186;28;20048;-67
2022/05/14 07:16:28;;;;;;;27.10;11.77;;;;;;;15.24;63.00;102026.44;5053198;28;20025;-67
2022/05/14 07:18:57;;;;;;;22.67;11.25;;;;;;;15.28;62.42;102039.50;5069933;28;20067;-67
2022/05/14 07:21:23;;;;;;;22.13;9.95;;;;;;;15.41;63.17;102039.59;5070066;28;20036;-67
2022/05/14 07:23:48;;;;;;;23.10;10.60;;;;;;;15.51;62.24;102043.41;5070071;28;20361;-67
2022/05/14 07:26:14;;;;;;;24.90;11.88;;;;;;;15.60;61.91;102041.94;5052600;28;20029;-67
2022/05/14 07:28:39;;;;;;;25.48;11.02;;;;;;;15.72;61.89;102045.69;5052093;28;20094;-67
2022/05/14 07:31:05;;;;;;;23.63;11.05;;;;;;;15.85;61.70;102035.84;5052246;28;20063;-67
2022/05/14 07:33:32;;;;;;;24.45;11.52;;;;;;;15.98;61.31;102036.78;5069170;28;20032;-67
2022/05/14 07:36:01;;;;;;;26.75;10.63;;;;;;;16.13;60.73;102043.78;5068567;28;20016;-67
2022/05/14 07:38:29;;;;;;;25.27;11.20;;;;;;;16.21;61.06;102039.75;5070505;28;20070;-67
2022/05/14 07:40:57;;;;;;;23.92;11.02;;;;;;;16.31;60.29;102041.69;5070372;28;20434;-67
2022/05/14 07:43:26;;;;;;;23.30;11.10;;;;;;;16.35;59.75;102047.69;5070027;28;20028;-67
2022/05/14 07:45:58;;;;;;;28.67;11.52;;;;;;;16.47;59.38;102041.50;5068324;28;20024;-67
2022/05/14 07:48:29;;;;;;;25.75;11.75;;;;;;;16.51;59.56;102034.09;5070292;28;20040;-67
2022/05/14 07:51:01;;;;;;;17.35;10.07;;;;;;;16.59;59.31;102031.75;5068360;28;20021;-67
2022/05/14 07:53:30;;;;;;;22.02;11.30;;;;;;;16.84;59.14;102038.09;5073208;28;20028;-67
2022/05/14 07:55:57;;;;;;;23.60;11.25;;;;;;;16.93;59.08;102037.44;5070159;28;20025;-67
2022/05/14 07:58:24;;;;;;;19.90;10.85;;;;;;;17.25;58.94;102043.22;5073709;28;20036;-67
2022/05/14 08:00:50;;;;;;;23.08;11.15;;;;;;;17.16;58.37;102017.84;5073583;28;20039;-67
2022/05/14 08:03:16;;;;;;;24.60;10.90;;;;;;;17.45;57.60;102039.94;5091528;28;20111;-67
2022/05/14 08:05:41;;;;;;;23.13;10.30;;;;;;;17.60;56.69;102037.09;5074348;28;20163;-67
2022/05/14 08:08:08;;;;;;;22.33;9.27;;;;;;;17.61;56.96;102049.56;5055338;28;20093;-67
2022/05/14 08:10:34;;;;;;;21.58;10.40;;;;;;;17.58;56.16;102050.63;5055342;28;20036;-67
2022/05/14 08:12:59;;;;;;;25.52;10.88;;;;;;;17.88;56.56;102052.06;5073635;28;20053;-67
2022/05/14 08:15:27;;;;;;;23.98;9.95;;;;;;;17.93;55.69;102049.91;5055679;28;20086;-66
2022/05/14 08:17:53;;;;;;;20.40;10.10;;;;;;;18.11;55.14;102042.25;5073087;28;20021;-67
2022/05/14 08:20:19;;;;;;;24.88;10.65;;;;;;;18.20;55.51;102043.41;5072665;28;20095;-67
2022/05/14 08:25:30;;;;;;;21.08;10.68;;;;;;;18.44;54.38;102049.59;5070458;28;20043;-67
2022/05/14 08:27:58;;;;;;;20.35;10.02;;;;;;;18.46;54.06;102047.63;5073803;28;20017;-67
2022/05/14 08:30:26;;;;;;;24.63;10.05;;;;;;;18.55;53.77;102038.84;5072034;28;20041;-66
2022/05/14 08:32:53;;;;;;;26.65;10.55;;;;;;;18.56;53.17;102042.38;5071815;28;20028;-67
2022/05/14 08:35:19;;;;;;;22.10;9.93;;;;;;;18.80;53.60;102047.75;5072132;28;20063;-66
2022/05/14 08:37:48;;;;;;;21.15;9.30;;;;;;;18.69;52.84;102048.53;5072878;28;20455;-66
2022/05/14 08:40:21;;;;;;;22.60;10.52;;;;;;;18.88;53.58;102050.66;5073132;28;20391;-66
2022/05/14 08:42:53;;;;;;;19.60;9.25;;;;;;;18.99;52.38;102053.38;5072970;28;20047;-66
2022/05/14 08:45:24;;;;;;;22.48;9.68;;;;;;;19.02;51.62;102053.13;5072185;28;20020;-66
2022/05/14 08:47:59;;;;;;;18.27;9.27;;;;;;;19.02;52.77;102047.75;5072414;28;20036;-66
2022/05/14 08:50:34;;;;;;;22.05;9.05;;;;;;;19.32;52.60;102048.94;5072366;28;20055;-66
2022/05/14 08:53:02;;;;;;;21.02;8.15;;;;;;;19.37;51.48;102048.59;5072869;28;20383;-68
2022/05/14 08:56:09;;;;;;;26.63;8.63;;;;;;;19.55;51.45;102044.38;5071156;28;20035;-66
2022/05/14 08:59:13;;;;;;;20.95;8.38;;;;;;;19.64;50.91;102035.53;5072338;28;20047;-66
2022/05/14 09:01:42;;;;;;;19.83;8.18;;;;;;;19.63;50.49;102041.06;5072353;28;20020;-66
2022/05/14 09:04:09;;;;;;;19.02;8.45;;;;;;;19.85;50.38;102034.75;5069213;28;20032;-66
2022/05/14 09:06:36;;;;;;;20.13;7.57;;;;;;;19.96;49.58;102030.19;5071243;28;20016;-67
2022/05/14 09:09:03;;;;;;;19.30;8.40;;;;;;;20.04;48.72;102043.06;5071222;28;20380;-66
2022/05/14 09:11:46;;;;;;;16.15;7.53;;;;;;;20.09;49.04;102042.63;5072639;28;20028;-66
2022/05/14 09:14:23;;;;;;;20.25;8.38;;;;;;;19.98;49.16;102042.72;5072120;28;20044;-66
2022/05/14 09:16:51;;;;;;;20.27;8.43;;;;;;;19.89;49.28;102041.63;5070623;28;20443;-66
2022/05/14 09:19:20;;;;;;;18.15;8.13;;;;;;;19.96;48.99;102035.56;5071743;28;20028;-66
2022/05/14 09:21:56;;;;;;;15.85;7.40;;;;;;;20.15;47.99;102044.84;5071045;28;20483;-66
2022/05/14 09:24:27;;;;;;;16.92;7.35;;;;;;;20.07;47.90;102042.78;5071928;28;20036;-66
2022/05/14 09:27:07;;;;;;;22.17;8.50;;;;;;;20.18;47.61;102039.19;5072281;28;20020;-66
2022/05/14 09:29:41;;;;;;;18.15;7.32;;;;;;;20.63;47.36;102049.78;5071900;28;20085;-66
2022/05/14 09:32:28;;;;;;;22.45;7.78;;;;;;;21.04;47.37;102043.44;5070682;28;20020;-66
2022/05/14 09:35:08;;;;;;;21.02;7.78;;;;;;;20.90;46.06;102027.56;5070498;28;20052;-66
2022/05/14 09:37:37;;;;;;;15.38;7.22;;;;;;;21.17;45.28;102034.22;5070515;28;20028;-66
2022/05/14 09:40:10;;;;;;;17.02;6.82;;;;;;;21.27;45.01;102032.41;5072026;28;20418;-66
2022/05/14 09:42:51;;;;;;;16.35;6.53;;;;;;;21.12;43.73;102037.34;5071841;28;20544;-67
2022/05/14 09:45:31;;;;;;;20.05;6.45;;;;;;;20.92;44.30;102041.81;5070319;28;20017;-67
2022/05/14 09:48:17;;;;;;;21.42;6.20;;;;;;;20.80;44.39;102030.22;5070278;28;20073;-67
2022/05/14 09:50:47;;;;;;;17.17;6.18;;;;;;;20.83;43.76;102021.00;5071083;28;20024;-67
2022/05/14 09:53:13;;;;;;;;;;;;;;;21.25;44.39;102037.94;5070397;28;20060;-67
2022/05/14 09:56:17;;;;;;;19.25;6.03;;;;;;;21.42;43.59;102028.34;5070013;28;19954;-67
2022/05/14 09:59:02;;;;;;;10.75;5.35;;;;;;;21.69;41.96;102024.13;5069772;28;20032;-67
2022/05/14 10:01:41;;;;;;;14.80;6.57;;;;;;;21.71;41.65;102025.72;5071253;28;20047;-67
2022/05/14 10:04:18;;;;;;;18.67;6.38;;;;;;;21.75;43.01;102023.56;5070538;28;20476;-67
2022/05/14 10:06:46;;;;;;;16.60;6.47;;;;;;;21.74;41.00;102032.69;5070111;28;20519;-67
2022/05/14 10:09:25;;;;;;;13.50;5.57;;;;;;;21.89;41.41;102030.44;5069887;28;20388;-67
2022/05/14 10:12:00;;;;;;;14.82;6.68;;;;;;;21.90;40.81;102041.09;5071330;28;20374;-67
2022/05/14 10:14:41;;;;;;;19.95;7.60;;;;;;;22.02;41.12;102040.97;5070578;28;20034;-66
2022/05/14 10:17:26;;;;;;;16.35;7.43;;;;;;;21.88;41.80;102037.69;5086698;28;20032;-67
2022/05/14 10:20:14;;;;;;;16.88;7.32;;;;;;;22.32;41.69;102030.00;5090851;28;20501;-66
2022/05/14 10:29:24;;;;;;;20.77;8.57;;;;;;;22.66;42.29;102034.94;5071084;28;20070;-67
2022/05/14 10:32:01;;;;;;;20.20;8.23;;;;;;;22.48;41.15;102024.00;5071545;28;20028;-67
2022/05/14 10:34:45;;;;;;;17.33;7.38;;;;;;;22.39;40.76;102025.72;5070716;28;20475;-67
2022/05/14 10:37:31;;;;;;;18.25;6.18;;;;;;;22.31;41.42;102027.44;5070679;28;20016;-67
2022/05/14 10:40:04;;;;;;;13.45;5.57;;;;;;;22.62;41.56;102022.69;5070999;28;20029;-67
2022/05/14 10:42:39;;;;;;;16.33;5.70;;;;;;;22.83;38.85;102026.03;5070712;28;20031;-67
2022/05/14 10:45:14;;;;;;;18.25;6.25;;;;;;;23.03;38.02;102024.13;5069488;28;20028;-67
2022/05/14 10:47:45;;;;;;;14.63;5.65;;;;;;;23.08;37.60;102029.94;5069547;28;20029;-67
2022/05/14 10:50:21;;;;;;;17.67;6.32;;;;;;;23.43;38.12;102032.94;5070152;28;20021;-67
2022/05/14 10:52:50;;;;;;;16.52;6.43;;;;;;;23.36;37.43;102027.25;5069016;28;20123;-67
2022/05/14 10:55:27;;;;;;;14.60;6.00;;;;;;;23.65;37.51;102024.34;5070924;28;20499;-67
2022/05/14 10:58:07;;;;;;;13.80;5.78;;;;;;;23.69;36.75;102033.91;5069093;28;20021;-67
2022/05/14 11:00:42;;;;;;;13.70;5.20;;;;;;;23.56;37.12;102028.00;5070605;28;20039;-67
2022/05/14 11:03:24;;;;;;;16.55;5.30;;;;;;;23.84;35.64;102031.53;5069082;28;20115;-67
2022/05/14 11:05:51;;;;;;;12.55;4.28;;;;;;;23.75;34.01;102021.59;5068776;28;20228;-67
2022/05/14 11:08:46;;;;;;;17.20;5.07;;;;;;;23.84;35.12;102022.53;5070707;28;20082;-67
2022/05/14 11:11:23;;;;;;;13.63;5.15;;;;;;;23.52;34.13;102026.56;5060657;28;20114;-67
2022/05/14 11:14:03;;;;;;;18.00;6.10;;;;;;;23.78;34.95;102024.00;5069853;28;20052;-67
2022/05/14 11:16:47;;;;;;;17.02;5.65;;;;;;;23.94;35.60;102026.88;5070658;28;20051;-68
2022/05/14 11:19:26;;;;;;;15.27;5.20;;;;;;;24.33;35.00;102028.41;5068807;28;20078;-67
2022/05/14 11:21:52;;;;;;;16.77;6.05;;;;;;;24.32;34.21;102034.84;5070204;28;20032;-67
2022/05/14 11:24:18;;;;;;;17.10;5.82;;;;;;;24.51;33.70;102031.97;5070454;28;20025;-67
2022/05/14 11:26:46;;;;;;;17.48;4.93;;;;;;;24.76;34.17;102032.97;5069203;28;20040;-67
2022/05/14 11:29:17;;;;;;;20.00;5.80;;;;;;;24.93;33.47;102036.63;5085671;28;20020;-67
2022/05/14 11:32:13;;;;;;;18.00;6.38;;;;;;;25.28;33.70;102021.16;5074365;28;20041;-67
2022/05/14 11:34:51;;;;;;;14.65;5.90;;;;;;;25.20;34.30;102026.56;5069364;28;20054;-67
2022/05/14 11:37:27;;;;;;;15.60;5.93;;;;;;;25.63;34.11;102021.94;5074001;28;20020;-67
2022/05/14 11:40:05;;;;;;;18.45;6.55;;;;;;;25.80;33.62;102013.63;5074470;28;20371;-67
2022/05/14 11:42:33;;;;;;;18.73;6.15;;;;;;;25.69;33.60;102021.28;5073763;28;20555;-67
2022/05/14 11:45:15;;;;;;;14.63;7.53;;;;;;;25.99;32.90;102017.94;5072900;28;20064;-67
2022/05/14 11:47:53;;;;;;;14.27;6.70;;;;;;;26.24;32.21;102021.53;5072414;28;20028;-67
2022/05/14 11:50:27;;;;;;;15.23;6.20;;;;;;;26.72;31.75;102029.84;5072142;28;20079;-67